sensor_id;sensor_type;location;lat;lon;timestamp;pressure;altitude;pressure_sealevel;temperature;humidity
3668;BME280;24099;47.102;15.440;2022-07-22T00:02:16;97212.66;;;20.19;100.00
3668;BME280;24099;47.102;15.440;2022-07-22T00:04:44;97222.28;;;20.03;100.00
3668;BME280;24099;47.102;15.440;2022-07-22T00:07:12;97219.28;;;20.00;100.00
3668;BME280;24099;47.102;15.440;2022-07-22T00:09:41;97220.25;;;19.93;100.00
3668;BME280;24099;47.102;15.440;2022-07-22T00:12:09;97222.84;;;19.88;100.00
3668;BME280;24099;47.102;15.440;2022-07-22T00:14:37;97212.22;;;19.77;100.00
3668;BME280;24099;47.102;15.440;2022-07-22T00:17:05;97217.72;;;19.58;100.00
3668;BME280;24099;47.102;15.440;2022-07-22T00:19:33;97223.41;;;19.62;100.00
3668;BME280;24099;47.102;15.440;2022-07-22T00:22:01;97221.59;;;19.51;100.00
3668;BME280;24099;47.102;15.440;2022-07-22T00:24:28;97214.25;;;19.46;100.00
3668;BME280;24099;47.102;15.440;2022-07-22T00:26:57;97217.50;;;19.48;100.00
3668;BME280;24099;47.102;15.440;2022-07-22T00:29:25;97222.16;;;19.53;100.00
3668;BME280;24099;47.102;15.440;2022-07-22T00:31:53;97215.44;;;19.39;100.00
3668;BME280;24099;47.102;15.440;2022-07-22T00:34:21;97212.44;;;19.35;100.00
3668;BME280;24099;47.102;15.440;2022-07-22T00:36:49;97220.28;;;19.42;100.00
3668;BME280;24099;47.102;15.440;2022-07-22T00:39:17;97221.97;;;19.31;100.00
3668;BME280;24099;47.102;15.440;2022-07-22T00:41:45;97218.03;;;19.34;100.00
3668;BME280;24099;47.102;15.440;2022-07-22T00:44:14;97217.34;;;19.26;100.00
3668;BME280;24099;47.102;15.440;2022-07-22T00:46:43;97224.28;;;19.27;100.00
3668;BME280;24099;47.102;15.440;2022-07-22T00:49:11;97220.69;;;19.34;100.00
3668;BME280;24099;47.102;15.440;2022-07-22T00:51:39;97220.25;;;19.13;100.00
3668;BME280;24099;47.102;15.440;2022-07-22T00:54:08;97222.94;;;19.13;100.00
3668;BME280;24099;47.102;15.440;2022-07-22T00:56:36;97219.69;;;19.11;100.00
3668;BME280;24099;47.102;15.440;2022-07-22T00:59:08;97218.41;;;19.02;100.00
3668;BME280;24099;47.102;15.440;2022-07-22T01:01:38;97212.63;;;19.05;100.00
3668;BME280;24099;47.102;15.440;2022-07-22T01:04:06;97211.56;;;19.06;100.00
3668;BME280;24099;47.102;15.440;2022-07-22T01:06:34;97221.44;;;19.06;100.00
3668;BME280;24099;47.102;15.440;2022-07-22T01:09:02;97213.91;;;18.91;100.00
3668;BME280;24099;47.102;15.440;2022-07-22T01:11:31;97231.41;;;18.87;100.00
3668;BME280;24099;47.102;15.440;2022-07-22T01:14:01;97230.34;;;19.00;100.00
3668;BME280;24099;47.102;15.440;2022-07-22T01:16:29;97230.16;;;18.78;100.00
3668;BME280;24099;47.102;15.440;2022-07-22T01:18:58;97231.31;;;18.82;100.00
3668;BME280;24099;47.102;15.440;2022-07-22T01:21:27;97229.00;;;18.74;100.00
3668;BME280;24099;47.102;15.440;2022-07-22T01:24:00;97227.84;;;18.70;100.00
3668;BME280;24099;47.102;15.440;2022-07-22T01:26:28;97232.69;;;18.61;100.00
3668;BME280;24099;47.102;15.440;2022-07-22T01:28:56;97230.56;;;18.51;100.00
3668;BME280;24099;47.102;15.440;2022-07-22T01:31:24;97225.84;;;18.53;100.00
3668;BME280;24099;47.102;15.440;2022-07-22T01:33:52;97223.63;;;18.50;100.00
3668;BME280;24099;47.102;15.440;2022-07-22T01:36:21;97228.38;;;18.48;100.00
3668;BME280;24099;47.102;15.440;2022-07-22T01:38:50;97223.84;;;18.49;100.00
3668;BME280;24099;47.102;15.440;2022-07-22T01:41:18;97230.81;;;18.38;100.00
3668;BME280;24099;47.102;15.440;2022-07-22T01:43:46;97229.28;;;18.42;100.00
3668;BME280;24099;47.102;15.440;2022-07-22T01:46:14;97228.81;;;18.34;100.00
3668;BME280;24099;47.102;15.440;2022-07-22T01:48:45;97231.03;;;18.37;100.00
3668;BME280;24099;47.102;15.440;2022-07-22T01:51:13;97226.53;;;18.37;100.00
3668;BME280;24099;47.102;15.440;2022-07-22T01:53:41;97230.44;;;18.46;100.00
3668;BME280;24099;47.102;15.440;2022-07-22T01:56:16;97229.66;;;18.57;100.00
3668;BME280;24099;47.102;15.440;2022-07-22T01:58:48;97237.09;;;18.79;100.00
3668;BME280;24099;47.102;15.440;2022-07-22T02:01:21;97237.84;;;18.33;100.00
3668;BME280;24099;47.102;15.440;2022-07-22T02:03:51;97229.97;;;18.26;100.00
3668;BME280;24099;47.102;15.440;2022-07-22T02:06:19;97223.25;;;18.35;100.00
3668;BME280;24099;47.102;15.440;2022-07-22T02:08:47;97229.81;;;18.21;100.00
3668;BME280;24099;47.102;15.440;2022-07-22T02:11:23;97226.25;;;18.15;100.00
3668;BME280;24099;47.102;15.440;2022-07-22T02:13:55;97226.91;;;18.11;100.00
3668;BME280;24099;47.102;15.440;2022-07-22T02:16:24;97230.97;;;18.13;100.00
3668;BME280;24099;47.102;15.440;2022-07-22T02:18:53;97227.88;;;18.16;100.00
3668;BME280;24099;47.102;15.440;2022-07-22T02:21:21;97235.84;;;18.16;100.00
3668;BME280;24099;47.102;15.440;2022-07-22T02:23:52;97239.75;;;18.02;100.00
3668;BME280;24099;47.102;15.440;2022-07-22T02:26:19;97236.16;;;17.97;100.00
3668;BME280;24099;47.102;15.440;2022-07-22T02:28:51;97229.78;;;17.98;100.00
3668;BME280;24099;47.102;15.440;2022-07-22T02:31:19;97235.13;;;17.98;100.00
3668;BME280;24099;47.102;15.440;2022-07-22T02:33:47;97238.69;;;17.92;100.00
3668;BME280;24099;47.102;15.440;2022-07-22T02:36:15;97230.13;;;18.01;100.00
3668;BME280;24099;47.102;15.440;2022-07-22T02:38:44;97238.31;;;17.88;100.00
3668;BME280;24099;47.102;15.440;2022-07-22T02:41:11;97242.03;;;17.99;100.00
3668;BME280;24099;47.102;15.440;2022-07-22T02:43:48;97241.13;;;17.93;100.00
3668;BME280;24099;47.102;15.440;2022-07-22T02:46:20;97228.72;;;17.99;100.00
3668;BME280;24099;47.102;15.440;2022-07-22T02:48:48;97241.19;;;17.86;100.00
3668;BME280;24099;47.102;15.440;2022-07-22T02:51:18;97234.47;;;17.84;100.00
3668;BME280;24099;47.102;15.440;2022-07-22T02:53:46;97229.97;;;17.84;100.00
3668;BME280;24099;47.102;15.440;2022-07-22T02:56:14;97234.97;;;17.93;100.00
3668;BME280;24099;47.102;15.440;2022-07-22T02:58:42;97233.59;;;18.02;100.00
3668;BME280;24099;47.102;15.440;2022-07-22T03:01:13;97235.50;;;17.83;100.00
3668;BME280;24099;47.102;15.440;2022-07-22T03:03:51;97235.94;;;17.80;100.00
3668;BME280;24099;47.102;15.440;2022-07-22T03:06:20;97239.75;;;17.72;100.00
3668;BME280;24099;47.102;15.440;2022-07-22T03:09:02;97249.38;;;17.73;100.00
3668;BME280;24099;47.102;15.440;2022-07-22T03:11:32;97241.78;;;17.88;100.00
3668;BME280;24099;47.102;15.440;2022-07-22T03:13:59;97243.13;;;17.79;100.00
3668;BME280;24099;47.102;15.440;2022-07-22T03:16:29;97256.00;;;17.82;100.00
3668;BME280;24099;47.102;15.440;2022-07-22T03:18:57;97255.63;;;17.79;100.00
3668;BME280;24099;47.102;15.440;2022-07-22T03:21:25;97258.44;;;17.84;100.00
3668;BME280;24099;47.102;15.440;2022-07-22T03:23:53;97264.13;;;17.87;100.00
3668;BME280;24099;47.102;15.440;2022-07-22T03:26:21;97258.19;;;17.74;100.00
3668;BME280;24099;47.102;15.440;2022-07-22T03:28:50;97263.88;;;17.77;100.00
3668;BME280;24099;47.102;15.440;2022-07-22T03:31:18;97260.06;;;17.85;100.00
3668;BME280;24099;47.102;15.440;2022-07-22T03:33:47;97262.94;;;17.83;100.00
3668;BME280;24099;47.102;15.440;2022-07-22T03:36:16;97270.94;;;17.83;100.00
3668;BME280;24099;47.102;15.440;2022-07-22T03:38:46;97266.78;;;17.87;100.00
3668;BME280;24099;47.102;15.440;2022-07-22T03:41:14;97278.94;;;17.83;100.00
3668;BME280;24099;47.102;15.440;2022-07-22T03:43:42;97278.47;;;17.86;100.00
3668;BME280;24099;47.102;15.440;2022-07-22T03:46:11;97275.78;;;18.05;100.00
3668;BME280;24099;47.102;15.440;2022-07-22T03:48:40;97282.56;;;18.01;100.00
3668;BME280;24099;47.102;15.440;2022-07-22T03:51:09;97284.25;;;17.83;100.00
3668;BME280;24099;47.102;15.440;2022-07-22T03:53:38;97287.53;;;17.67;100.00
3668;BME280;24099;47.102;15.440;2022-07-22T03:56:07;97284.13;;;17.78;100.00
3668;BME280;24099;47.102;15.440;2022-07-22T03:58:34;97278.69;;;17.85;100.00
3668;BME280;24099;47.102;15.440;2022-07-22T04:01:02;97282.53;;;17.89;100.00
3668;BME280;24099;47.102;15.440;2022-07-22T04:03:30;97283.34;;;17.89;100.00
3668;BME280;24099;47.102;15.440;2022-07-22T04:06:23;97288.94;;;18.00;100.00
3668;BME280;24099;47.102;15.440;2022-07-22T04:08:58;97285.94;;;17.96;100.00
3668;BME280;24099;47.102;15.440;2022-07-22T04:11:28;97282.47;;;17.96;100.00
3668;BME280;24099;47.102;15.440;2022-07-22T04:13:58;97299.16;;;18.03;100.00
3668;BME280;24099;47.102;15.440;2022-07-22T04:16:35;97294.28;;;18.00;100.00
3668;BME280;24099;47.102;15.440;2022-07-22T04:19:08;97289.75;;;18.00;100.00
3668;BME280;24099;47.102;15.440;2022-07-22T04:22:00;97292.78;;;18.04;100.00
3668;BME280;24099;47.102;15.440;2022-07-22T04:24:30;97295.22;;;18.05;100.00
3668;BME280;24099;47.102;15.440;2022-07-22T04:26:59;97298.69;;;18.06;100.00
3668;BME280;24099;47.102;15.440;2022-07-22T04:29:27;97299.00;;;18.16;100.00
3668;BME280;24099;47.102;15.440;2022-07-22T04:31:55;97301.44;;;18.29;100.00
3668;BME280;24099;47.102;15.440;2022-07-22T04:34:24;97314.69;;;18.36;100.00
3668;BME280;24099;47.102;15.440;2022-07-22T04:36:52;97305.75;;;18.42;100.00
3668;BME280;24099;47.102;15.440;2022-07-22T04:39:21;97305.66;;;18.48;100.00
3668;BME280;24099;47.102;15.440;2022-07-22T04:41:55;97312.72;;;18.43;100.00
3668;BME280;24099;47.102;15.440;2022-07-22T04:44:24;97313.09;;;18.46;100.00
3668;BME280;24099;47.102;15.440;2022-07-22T04:46:51;97306.47;;;18.37;100.00
3668;BME280;24099;47.102;15.440;2022-07-22T04:49:19;97299.44;;;18.54;100.00
3668;BME280;24099;47.102;15.440;2022-07-22T04:51:47;97305.63;;;18.67;100.00
3668;BME280;24099;47.102;15.440;2022-07-22T04:54:26;97303.09;;;18.72;100.00
3668;BME280;24099;47.102;15.440;2022-07-22T04:56:57;97303.91;;;18.84;100.00
3668;BME280;24099;47.102;15.440;2022-07-22T04:59:25;97300.53;;;18.77;100.00
3668;BME280;24099;47.102;15.440;2022-07-22T05:01:52;97306.34;;;18.85;100.00
3668;BME280;24099;47.102;15.440;2022-07-22T05:04:21;97305.88;;;18.88;100.00
3668;BME280;24099;47.102;15.440;2022-07-22T05:06:52;97305.19;;;18.93;100.00
3668;BME280;24099;47.102;15.440;2022-07-22T05:09:20;97313.53;;;19.08;100.00
3668;BME280;24099;47.102;15.440;2022-07-22T05:11:50;97318.53;;;19.16;100.00
3668;BME280;24099;47.102;15.440;2022-07-22T05:14:20;97314.44;;;19.25;100.00
3668;BME280;24099;47.102;15.440;2022-07-22T05:16:48;97317.34;;;19.36;100.00
3668;BME280;24099;47.102;15.440;2022-07-22T05:19:15;97323.16;;;19.33;100.00
3668;BME280;24099;47.102;15.440;2022-07-22T05:21:46;97320.69;;;19.43;100.00
3668;BME280;24099;47.102;15.440;2022-07-22T05:24:14;97314.19;;;19.74;100.00
3668;BME280;24099;47.102;15.440;2022-07-22T05:26:42;97319.94;;;19.82;100.00
3668;BME280;24099;47.102;15.440;2022-07-22T05:29:12;97316.16;;;19.78;100.00
3668;BME280;24099;47.102;15.440;2022-07-22T05:31:39;97316.28;;;20.00;100.00
3668;BME280;24099;47.102;15.440;2022-07-22T05:34:10;97310.22;;;20.05;100.00
3668;BME280;24099;47.102;15.440;2022-07-22T05:36:41;97314.94;;;19.98;100.00
3668;BME280;24099;47.102;15.440;2022-07-22T05:39:11;97310.81;;;20.07;100.00
3668;BME280;24099;47.102;15.440;2022-07-22T05:41:39;97310.44;;;20.15;100.00
3668;BME280;24099;47.102;15.440;2022-07-22T05:44:08;97305.84;;;20.27;100.00
3668;BME280;24099;47.102;15.440;2022-07-22T05:46:37;97306.78;;;20.21;100.00
3668;BME280;24099;47.102;15.440;2022-07-22T05:49:07;97309.03;;;20.41;100.00
3668;BME280;24099;47.102;15.440;2022-07-22T05:51:47;97302.34;;;20.55;100.00
3668;BME280;24099;47.102;15.440;2022-07-22T05:54:15;97300.50;;;20.72;100.00
3668;BME280;24099;47.102;15.440;2022-07-22T05:56:43;97300.94;;;21.03;100.00
3668;BME280;24099;47.102;15.440;2022-07-22T05:59:10;97312.06;;;21.11;100.00
3668;BME280;24099;47.102;15.440;2022-07-22T06:01:40;97303.16;;;21.22;100.00
3668;BME280;24099;47.102;15.440;2022-07-22T06:04:27;97317.81;;;21.37;100.00
3668;BME280;24099;47.102;15.440;2022-07-22T06:06:58;97316.25;;;21.41;100.00
3668;BME280;24099;47.102;15.440;2022-07-22T06:09:27;97314.22;;;21.70;100.00
3668;BME280;24099;47.102;15.440;2022-07-22T06:11:55;97316.03;;;21.64;100.00
3668;BME280;24099;47.102;15.440;2022-07-22T06:14:23;97311.88;;;21.73;100.00
3668;BME280;24099;47.102;15.440;2022-07-22T06:16:52;97320.50;;;21.80;100.00
3668;BME280;24099;47.102;15.440;2022-07-22T06:19:19;97315.03;;;21.92;100.00
3668;BME280;24099;47.102;15.440;2022-07-22T06:21:47;97314.59;;;22.22;100.00
3668;BME280;24099;47.102;15.440;2022-07-22T06:24:15;97322.22;;;22.08;100.00
3668;BME280;24099;47.102;15.440;2022-07-22T06:26:43;97326.03;;;22.12;100.00
3668;BME280;24099;47.102;15.440;2022-07-22T06:29:11;97310.69;;;22.34;100.00
3668;BME280;24099;47.102;15.440;2022-07-22T06:31:41;97326.22;;;22.59;100.00
3668;BME280;24099;47.102;15.440;2022-07-22T06:34:11;97317.84;;;22.78;100.00
3668;BME280;24099;47.102;15.440;2022-07-22T06:36:54;97308.22;;;22.87;100.00
3668;BME280;24099;47.102;15.440;2022-07-22T06:39:21;97319.88;;;22.71;100.00
3668;BME280;24099;47.102;15.440;2022-07-22T06:42:28;97313.97;;;23.00;100.00
3668;BME280;24099;47.102;15.440;2022-07-22T06:45:22;97310.84;;;23.56;100.00
3668;BME280;24099;47.102;15.440;2022-07-22T06:48:05;97315.94;;;23.52;100.00
3668;BME280;24099;47.102;15.440;2022-07-22T06:50:35;97308.72;;;23.63;100.00
3668;BME280;24099;47.102;15.440;2022-07-22T06:53:09;97312.13;;;23.48;100.00
3668;BME280;24099;47.102;15.440;2022-07-22T06:55:39;97320.50;;;23.52;100.00
3668;BME280;24099;47.102;15.440;2022-07-22T06:58:12;97314.28;;;24.09;100.00
3668;BME280;24099;47.102;15.440;2022-07-22T07:00:40;97313.88;;;24.72;100.00
3668;BME280;24099;47.102;15.440;2022-07-22T07:03:29;97316.78;;;24.30;100.00
3668;BME280;24099;47.102;15.440;2022-07-22T07:06:01;97317.88;;;24.29;100.00
3668;BME280;24099;47.102;15.440;2022-07-22T07:08:43;97314.69;;;24.98;100.00
3668;BME280;24099;47.102;15.440;2022-07-22T07:11:11;97314.69;;;24.78;100.00
3668;BME280;24099;47.102;15.440;2022-07-22T07:13:40;97321.72;;;25.04;100.00
3668;BME280;24099;47.102;15.440;2022-07-22T07:16:08;97318.19;;;24.94;100.00
3668;BME280;24099;47.102;15.440;2022-07-22T07:18:38;97323.59;;;25.09;100.00
3668;BME280;24099;47.102;15.440;2022-07-22T07:21:10;97316.63;;;24.98;100.00
3668;BME280;24099;47.102;15.440;2022-07-22T07:23:39;97318.75;;;25.06;100.00
3668;BME280;24099;47.102;15.440;2022-07-22T07:26:07;97313.88;;;25.33;100.00
3668;BME280;24099;47.102;15.440;2022-07-22T07:28:36;97312.44;;;25.71;100.00
3668;BME280;24099;47.102;15.440;2022-07-22T07:31:09;97310.81;;;25.70;100.00
3668;BME280;24099;47.102;15.440;2022-07-22T07:33:38;97310.75;;;25.86;100.00
3668;BME280;24099;47.102;15.440;2022-07-22T07:36:07;97310.41;;;26.02;100.00
3668;BME280;24099;47.102;15.440;2022-07-22T07:38:40;97310.03;;;26.19;100.00
3668;BME280;24099;47.102;15.440;2022-07-22T07:41:13;97313.53;;;26.30;100.00
3668;BME280;24099;47.102;15.440;2022-07-22T07:43:42;97306.59;;;26.14;100.00
3668;BME280;24099;47.102;15.440;2022-07-22T07:46:10;97306.34;;;26.05;100.00
3668;BME280;24099;47.102;15.440;2022-07-22T07:48:41;97307.16;;;26.55;100.00
3668;BME280;24099;47.102;15.440;2022-07-22T07:51:12;97309.38;;;26.48;100.00
3668;BME280;24099;47.102;15.440;2022-07-22T07:53:41;97306.66;;;26.53;95.70
3668;BME280;24099;47.102;15.440;2022-07-22T07:56:10;97308.81;;;26.51;100.00
3668;BME280;24099;47.102;15.440;2022-07-22T07:58:38;97310.03;;;26.68;100.00
3668;BME280;24099;47.102;15.440;2022-07-22T08:01:07;97303.25;;;26.71;98.62
3668;BME280;24099;47.102;15.440;2022-07-22T08:03:35;97308.28;;;26.83;90.21
3668;BME280;24099;47.102;15.440;2022-07-22T08:06:05;97311.06;;;26.77;94.95
3668;BME280;24099;47.102;15.440;2022-07-22T08:08:33;97308.66;;;27.05;92.25
3668;BME280;24099;47.102;15.440;2022-07-22T08:11:08;97317.25;;;27.12;92.80
3668;BME280;24099;47.102;15.440;2022-07-22T08:13:56;97311.06;;;27.12;91.48
3668;BME280;24099;47.102;15.440;2022-07-22T08:16:27;97317.22;;;27.17;93.27
3668;BME280;24099;47.102;15.440;2022-07-22T08:18:54;97309.28;;;27.26;88.93
3668;BME280;24099;47.102;15.440;2022-07-22T08:21:22;97309.47;;;27.34;93.48
3668;BME280;24099;47.102;15.440;2022-07-22T08:23:59;97309.88;;;27.47;99.13
3668;BME280;24099;47.102;15.440;2022-07-22T08:26:30;97309.25;;;27.55;96.03
3668;BME280;24099;47.102;15.440;2022-07-22T08:28:59;97315.59;;;27.93;86.68
3668;BME280;24099;47.102;15.440;2022-07-22T08:31:27;97311.09;;;27.83;88.43
3668;BME280;24099;47.102;15.440;2022-07-22T08:33:57;97315.28;;;27.75;89.78
3668;BME280;24099;47.102;15.440;2022-07-22T08:36:28;97312.84;;;27.74;88.55
3668;BME280;24099;47.102;15.440;2022-07-22T08:38:57;97312.78;;;27.79;87.94
3668;BME280;24099;47.102;15.440;2022-07-22T08:41:26;97312.63;;;27.94;91.07
3668;BME280;24099;47.102;15.440;2022-07-22T08:43:56;97311.81;;;27.94;86.04
3668;BME280;24099;47.102;15.440;2022-07-22T08:46:27;97305.44;;;28.03;87.55
3668;BME280;24099;47.102;15.440;2022-07-22T08:49:14;97307.25;;;28.32;93.70
3668;BME280;24099;47.102;15.440;2022-07-22T08:52:02;97306.88;;;28.38;85.49
3668;BME280;24099;47.102;15.440;2022-07-22T08:54:36;97301.69;;;28.42;90.70
3668;BME280;24099;47.102;15.440;2022-07-22T08:57:05;97305.00;;;28.58;95.56
3668;BME280;24099;47.102;15.440;2022-07-22T08:59:51;97308.19;;;28.60;90.94
3668;BME280;24099;47.102;15.440;2022-07-22T09:02:20;97306.06;;;28.75;84.35
3668;BME280;24099;47.102;15.440;2022-07-22T09:04:56;97305.44;;;28.78;81.86
3668;BME280;24099;47.102;15.440;2022-07-22T09:07:28;97305.06;;;28.53;80.91
3668;BME280;24099;47.102;15.440;2022-07-22T09:10:02;97302.66;;;28.51;81.36
3668;BME280;24099;47.102;15.440;2022-07-22T09:12:54;97303.53;;;28.79;80.77
3668;BME280;24099;47.102;15.440;2022-07-22T09:15:49;97301.94;;;28.97;81.86
3668;BME280;24099;47.102;15.440;2022-07-22T09:18:46;97296.78;;;29.14;82.59
3668;BME280;24099;47.102;15.440;2022-07-22T09:21:29;97303.97;;;29.05;80.34
3668;BME280;24099;47.102;15.440;2022-07-22T09:24:27;97293.63;;;29.07;80.73
3668;BME280;24099;47.102;15.440;2022-07-22T09:27:03;97292.19;;;29.42;78.07
3668;BME280;24099;47.102;15.440;2022-07-22T09:29:49;97291.94;;;29.57;78.35
3668;BME280;24099;47.102;15.440;2022-07-22T09:32:20;97284.69;;;29.53;80.07
3668;BME280;24099;47.102;15.440;2022-07-22T09:35:02;97285.78;;;29.65;78.22
3668;BME280;24099;47.102;15.440;2022-07-22T09:37:54;97296.63;;;29.52;76.84
3668;BME280;24099;47.102;15.440;2022-07-22T09:40:24;97288.88;;;29.86;77.08
3668;BME280;24099;47.102;15.440;2022-07-22T09:42:54;97285.56;;;30.03;76.29
3668;BME280;24099;47.102;15.440;2022-07-22T09:45:25;97283.84;;;29.79;73.07
3668;BME280;24099;47.102;15.440;2022-07-22T09:47:56;97285.28;;;29.50;74.44
3668;BME280;24099;47.102;15.440;2022-07-22T09:50:45;97273.13;;;29.47;75.04
3668;BME280;24099;47.102;15.440;2022-07-22T09:53:34;97278.16;;;29.54;74.45
3668;BME280;24099;47.102;15.440;2022-07-22T09:56:09;97285.97;;;30.10;77.20
3668;BME280;24099;47.102;15.440;2022-07-22T09:58:38;97283.44;;;30.13;74.94
3668;BME280;24099;47.102;15.440;2022-07-22T10:01:15;97282.34;;;30.14;72.80
3668;BME280;24099;47.102;15.440;2022-07-22T10:03:48;97276.97;;;30.23;72.93
3668;BME280;24099;47.102;15.440;2022-07-22T10:06:18;97276.22;;;30.09;72.65
3668;BME280;24099;47.102;15.440;2022-07-22T10:08:48;97275.41;;;30.44;72.92
3668;BME280;24099;47.102;15.440;2022-07-22T10:11:18;97262.97;;;30.30;70.14
3668;BME280;24099;47.102;15.440;2022-07-22T10:13:46;97269.84;;;30.49;71.05
3668;BME280;24099;47.102;15.440;2022-07-22T10:16:15;97265.16;;;30.41;68.14
3668;BME280;24099;47.102;15.440;2022-07-22T10:18:47;97257.31;;;30.40;69.36
3668;BME280;24099;47.102;15.440;2022-07-22T10:21:18;97258.56;;;30.34;71.54
3668;BME280;24099;47.102;15.440;2022-07-22T10:24:08;97256.66;;;30.79;69.50
3668;BME280;24099;47.102;15.440;2022-07-22T10:26:48;97269.91;;;31.03;67.43
3668;BME280;24099;47.102;15.440;2022-07-22T10:29:30;97264.16;;;30.73;68.36
3668;BME280;24099;47.102;15.440;2022-07-22T10:32:24;97258.53;;;30.70;67.33
3668;BME280;24099;47.102;15.440;2022-07-22T10:35:25;97253.06;;;31.14;69.80
3668;BME280;24099;47.102;15.440;2022-07-22T10:38:10;97250.03;;;31.16;64.02
3668;BME280;24099;47.102;15.440;2022-07-22T10:40:52;97241.09;;;31.24;65.75
3668;BME280;24099;47.102;15.440;2022-07-22T10:43:23;97243.19;;;31.67;66.13
3668;BME280;24099;47.102;15.440;2022-07-22T10:45:54;97235.88;;;31.36;64.13
3668;BME280;24099;47.102;15.440;2022-07-22T10:48:25;97235.63;;;31.64;66.13
3668;BME280;24099;47.102;15.440;2022-07-22T10:51:08;97231.00;;;31.64;63.82
3668;BME280;24099;47.102;15.440;2022-07-22T10:53:53;97231.84;;;31.82;63.89
3668;BME280;24099;47.102;15.440;2022-07-22T10:56:27;97232.22;;;31.49;63.11
3668;BME280;24099;47.102;15.440;2022-07-22T10:58:58;97225.53;;;31.64;65.04
3668;BME280;24099;47.102;15.440;2022-07-22T11:01:29;97227.84;;;31.71;63.94
3668;BME280;24099;47.102;15.440;2022-07-22T11:04:12;97222.81;;;31.56;61.98
3668;BME280;24099;47.102;15.440;2022-07-22T11:06:42;97230.25;;;31.81;62.90
3668;BME280;24099;47.102;15.440;2022-07-22T11:09:11;97223.19;;;31.80;61.99
3668;BME280;24099;47.102;15.440;2022-07-22T11:11:41;97220.00;;;31.69;60.85
3668;BME280;24099;47.102;15.440;2022-07-22T11:14:20;97215.53;;;31.82;58.87
3668;BME280;24099;47.102;15.440;2022-07-22T11:16:50;97216.19;;;31.96;61.39
3668;BME280;24099;47.102;15.440;2022-07-22T11:19:23;97213.50;;;32.31;62.18
3668;BME280;24099;47.102;15.440;2022-07-22T11:21:55;97210.13;;;32.25;61.58
3668;BME280;24099;47.102;15.440;2022-07-22T11:24:24;97213.47;;;32.39;59.36
3668;BME280;24099;47.102;15.440;2022-07-22T11:26:55;97211.06;;;32.38;61.15
3668;BME280;24099;47.102;15.440;2022-07-22T11:29:26;97215.56;;;32.08;59.33
3668;BME280;24099;47.102;15.440;2022-07-22T11:31:58;97207.44;;;31.60;60.14
3668;BME280;24099;47.102;15.440;2022-07-22T11:34:26;97196.50;;;32.25;59.46
3668;BME280;24099;47.102;15.440;2022-07-22T11:36:56;97197.59;;;31.98;58.74
3668;BME280;24099;47.102;15.440;2022-07-22T11:39:27;97196.16;;;32.01;58.03
3668;BME280;24099;47.102;15.440;2022-07-22T11:41:57;97198.44;;;32.16;57.17
3668;BME280;24099;47.102;15.440;2022-07-22T11:44:27;97190.41;;;32.45;55.75
3668;BME280;24099;47.102;15.440;2022-07-22T11:46:59;97191.69;;;32.48;58.62
3668;BME280;24099;47.102;15.440;2022-07-22T11:49:30;97189.13;;;32.17;55.44
3668;BME280;24099;47.102;15.440;2022-07-22T11:52:04;97184.19;;;32.36;55.12
3668;BME280;24099;47.102;15.440;2022-07-22T11:54:33;97181.19;;;32.84;56.83
3668;BME280;24099;47.102;15.440;2022-07-22T11:57:02;97173.91;;;33.06;57.47
3668;BME280;24099;47.102;15.440;2022-07-22T11:59:33;97174.59;;;32.94;54.41
3668;BME280;24099;47.102;15.440;2022-07-22T12:02:03;97173.53;;;32.69;54.36
3668;BME280;24099;47.102;15.440;2022-07-22T12:04:34;97167.34;;;32.98;53.97
3668;BME280;24099;47.102;15.440;2022-07-22T12:07:04;97160.03;;;32.81;55.82
3668;BME280;24099;47.102;15.440;2022-07-22T12:09:36;97163.16;;;33.01;57.31
3668;BME280;24099;47.102;15.440;2022-07-22T12:12:08;97160.38;;;32.71;57.00
3668;BME280;24099;47.102;15.440;2022-07-22T12:14:35;97153.84;;;33.02;57.58
3668;BME280;24099;47.102;15.440;2022-07-22T12:17:05;97159.84;;;33.33;56.17
3668;BME280;24099;47.102;15.440;2022-07-22T12:19:36;97159.22;;;33.19;55.91
3668;BME280;24099;47.102;15.440;2022-07-22T12:22:09;97154.06;;;32.97;55.16
3668;BME280;24099;47.102;15.440;2022-07-22T12:24:42;97149.28;;;33.23;56.03
3668;BME280;24099;47.102;15.440;2022-07-22T12:27:17;97142.16;;;33.01;55.47
3668;BME280;24099;47.102;15.440;2022-07-22T12:29:47;97137.31;;;33.07;56.67
3668;BME280;24099;47.102;15.440;2022-07-22T12:32:17;97143.47;;;33.25;55.38
3668;BME280;24099;47.102;15.440;2022-07-22T12:34:47;97135.47;;;33.28;55.81
3668;BME280;24099;47.102;15.440;2022-07-22T12:37:25;97130.25;;;33.06;55.47
3668;BME280;24099;47.102;15.440;2022-07-22T12:39:59;97121.97;;;33.23;56.08
3668;BME280;24099;47.102;15.440;2022-07-22T12:42:31;97123.94;;;33.73;56.90
3668;BME280;24099;47.102;15.440;2022-07-22T12:45:05;97126.22;;;33.12;57.36
3668;BME280;24099;47.102;15.440;2022-07-22T12:47:56;97121.66;;;33.33;57.22
3668;BME280;24099;47.102;15.440;2022-07-22T12:50:28;97121.06;;;33.69;58.14
3668;BME280;24099;47.102;15.440;2022-07-22T12:52:59;97121.34;;;33.26;55.86
3668;BME280;24099;47.102;15.440;2022-07-22T12:55:30;97123.50;;;33.41;57.83
3668;BME280;24099;47.102;15.440;2022-07-22T12:58:01;97111.25;;;33.18;58.38
3668;BME280;24099;47.102;15.440;2022-07-22T13:00:35;97113.06;;;33.14;57.20
3668;BME280;24099;47.102;15.440;2022-07-22T13:03:04;97112.94;;;33.61;60.23
3668;BME280;24099;47.102;15.440;2022-07-22T13:05:32;97107.53;;;32.93;57.35
3668;BME280;24099;47.102;15.440;2022-07-22T13:08:03;97104.81;;;33.52;57.85
3668;BME280;24099;47.102;15.440;2022-07-22T13:10:31;97108.22;;;34.11;58.29
3668;BME280;24099;47.102;15.440;2022-07-22T13:12:59;97098.28;;;34.07;59.80
3668;BME280;24099;47.102;15.440;2022-07-22T13:15:27;97098.31;;;33.86;58.51
3668;BME280;24099;47.102;15.440;2022-07-22T13:17:55;97105.44;;;33.78;57.49
3668;BME280;24099;47.102;15.440;2022-07-22T13:20:24;97102.72;;;33.28;57.57